Hlavní strana
METAR-TAF:

METAR-TAF

Letiště :

Letiště Adolfa Suáreze

Madrid, Španělsko

zeměpisná šířka: 40-27N, zeměpisná délka: 003-33W, výška: 609 m

Aktuální stav počasí

Zpráva byla vytvořena před 18 minutami, v 22:30 UTC
vítr z různých směrů 2 kt
Teplota 7°C
Vlhkost vzduchu 87%
Tlak 1020 hPa
Viditelnost 10 km a více
Polojasno ve výšce 6000 ft
Oblačno až skoro zataženo ve výšce 8000 ft

METAR: LEMD 232230Z VRB02KT 9999 SCT060 BKN080 07/05 Q1020 NOSIG

Čas: 23:48 (22:48 UTC)

Předpověď počasí

Zpráva byla vytvořena před 5 hodinami a 48 minutami, v 17:00 UTC
Předpověď platná od 23 v 18 UTC do 24 v 24 UTC
vítr z různých směrů 2 kt
Viditelnost 10 km a více
Polojasno ve výšce 2500 ft
Polojasno ve výšce 4000 ft
Dočasný
od 24 v 00 UTC do 24 v 18 UTC
déšť
Pravděpodobnost 40% :
Dočasný
od 24 v 00 UTC do 24 v 15 UTC
Viditelnost: 3000 m
Oblačno až skoro zataženo ve výšce 1300 ft
déšť

TAF: LEMD 231700Z 2318/2424 VRB02KT 9999 SCT025 SCT040 TX10/2415Z TN03/2400Z TEMPO 2400/2418 RA PROB40 TEMPO 2400/2415 3000 RA BKN013

Stav a předpovědi počasí z více než 4 000 letišť (zprávy METAR a TAF).

Červené a žluté tečky na mapě představují dostupné meteorologické stanice.

Když kurzor umístíte na tečku, zobrazí se název stanice.

Pak kliknutím zobrazíte stav a předpověď počasí.

Chcete-li změnit mapu, kliknutím na zelené tlačítko se znaménkem +mapu přiblížíte, kliknutím na zelené tlačítko se znaménkem – mapu oddálíte a kliknutím na zelené šipky přejdete na sousední mapy.


METAR-TAF: